createdAt,value
2018-03-18T00:01:18.063Z,72.70
2018-03-18T00:03:49.008Z,72.60
2018-03-18T00:06:18.916Z,72.40
2018-03-18T00:08:48.675Z,72.20
2018-03-18T00:11:19.168Z,71.70
2018-03-18T00:13:48.973Z,71.60
2018-03-18T00:16:18.974Z,71.40
2018-03-18T00:18:48.669Z,71.60
2018-03-18T00:21:18.452Z,71.40
2018-03-18T00:23:48.700Z,71.50
2018-03-18T00:26:19.713Z,70.40
2018-03-18T00:28:51.029Z,70.60
2018-03-18T00:31:20.841Z,70.60
2018-03-18T00:33:51.519Z,70.40
2018-03-18T00:36:22.801Z,69.90
2018-03-18T00:38:52.584Z,69.80
2018-03-18T00:41:22.504Z,68.40
2018-03-18T00:43:52.283Z,68.80
2018-03-18T00:46:22.910Z,68.80
2018-03-18T00:48:52.748Z,68.90
2018-03-18T00:51:33.598Z,68.80
2018-03-18T00:54:04.093Z,68.50
2018-03-18T00:56:33.759Z,68.50
2018-03-18T00:59:03.468Z,67.50
2018-03-18T01:01:33.751Z,67.50
2018-03-18T01:04:03.441Z,67.10
2018-03-18T01:06:33.294Z,67.10
2018-03-18T01:09:03.841Z,66.20
2018-03-18T01:11:34.194Z,66.20
2018-03-18T01:14:04.005Z,66.80
2018-03-18T01:16:34.498Z,67.00
2018-03-18T01:19:05.034Z,66.60
2018-03-18T01:21:35.702Z,66.50
2018-03-18T01:24:05.421Z,65.60
2018-03-18T01:26:35.282Z,65.60
2018-03-18T01:29:05.766Z,64.60
2018-03-18T01:31:35.604Z,64.60
2018-03-18T01:34:06.034Z,64.10
2018-03-18T01:36:36.560Z,64.10
2018-03-18T01:39:06.701Z,64.10
2018-03-18T01:41:37.843Z,63.30
2018-03-18T01:44:08.346Z,63.50
2018-03-18T01:46:38.938Z,63.50
2018-03-18T01:49:08.681Z,63.50
2018-03-18T01:51:38.385Z,63.20
2018-03-18T01:54:08.077Z,63.60
2018-03-18T01:56:38.086Z,63.10
2018-03-18T01:59:07.870Z,63.10
2018-03-18T02:01:37.595Z,62.90
2018-03-18T02:04:07.273Z,62.50
2018-03-18T02:06:37.586Z,62.70
2018-03-18T02:09:08.519Z,62.10
2018-03-18T02:11:38.252Z,62.10
2018-03-18T02:14:08.205Z,61.80
2018-03-18T02:16:39.306Z,61.10
2018-03-18T02:19:09.728Z,61.00
2018-03-18T02:21:39.920Z,61.40
2018-03-18T02:24:09.758Z,61.40
2018-03-18T02:26:40.271Z,60.80
2018-03-18T02:29:10.022Z,60.80
2018-03-18T02:31:40.526Z,59.70
2018-03-18T02:34:11.057Z,59.20
2018-03-18T02:36:41.050Z,59.20
2018-03-18T02:39:10.747Z,59.60
2018-03-18T02:41:41.496Z,59.90
2018-03-18T02:44:11.183Z,59.20
2018-03-18T02:46:41.064Z,59.50
2018-03-18T02:49:12.669Z,59.20
2018-03-18T02:51:42.856Z,59.00
2018-03-18T02:54:12.585Z,59.00
2018-03-18T02:56:42.357Z,58.10
2018-03-18T02:59:12.134Z,58.30
2018-03-18T03:01:42.327Z,58.30
2018-03-18T03:04:13.266Z,58.40
2018-03-18T03:06:42.998Z,58.40
2018-03-18T03:09:13.726Z,57.40
2018-03-18T03:11:45.461Z,57.30
2018-03-18T03:14:15.863Z,56.90
2018-03-18T03:16:45.621Z,56.70
2018-03-18T03:19:15.354Z,56.80
2018-03-18T03:21:45.829Z,56.30
2018-03-18T03:24:16.188Z,56.30
2018-03-18T03:26:45.868Z,56.70
2018-03-18T03:29:15.631Z,56.80
2018-03-18T03:31:45.317Z,56.80
2018-03-18T03:34:16.492Z,56.70
2018-03-18T03:36:46.176Z,56.70
2018-03-18T03:39:15.873Z,55.60
2018-03-18T03:41:46.332Z,55.30
2018-03-18T03:44:16.819Z,55.10
2018-03-18T03:46:47.295Z,55.10
2018-03-18T03:49:17.042Z,55.50
2018-03-18T03:51:46.774Z,55.80
2018-03-18T03:54:17.548Z,55.40
2018-03-18T03:56:47.886Z,55.40
2018-03-18T03:59:17.685Z,55.00
2018-03-18T04:01:47.693Z,55.20
2018-03-18T04:04:17.898Z,54.40
2018-03-18T04:06:48.707Z,55.20
2018-03-18T04:09:18.463Z,54.60
2018-03-18T04:11:49.311Z,55.90
2018-03-18T04:14:19.032Z,55.80
2018-03-18T04:16:49.677Z,57.00
2018-03-18T04:19:19.424Z,56.90
2018-03-18T04:21:49.450Z,57.20
2018-03-18T04:24:20.426Z,56.90
2018-03-18T04:26:50.144Z,56.90
2018-03-18T04:29:19.883Z,56.90
2018-03-18T04:31:50.686Z,56.80
2018-03-18T04:34:20.466Z,57.50
2018-03-18T04:36:50.661Z,57.50
2018-03-18T04:39:20.912Z,57.80
2018-03-18T04:41:50.991Z,58.90
2018-03-18T04:44:22.250Z,60.20
2018-03-18T04:46:52.003Z,60.20
2018-03-18T04:49:21.850Z,61.00
2018-03-18T04:51:52.646Z,59.40
2018-03-18T04:54:22.416Z,59.40
2018-03-18T04:56:53.191Z,57.50
2018-03-18T04:59:22.888Z,57.50
2018-03-18T05:01:52.867Z,57.20
2018-03-18T05:04:23.508Z,55.60
2018-03-18T05:06:53.266Z,55.30
2018-03-18T05:09:23.266Z,56.20
2018-03-18T05:11:54.331Z,57.60
2018-03-18T05:14:24.661Z,57.60
2018-03-18T05:16:54.374Z,58.50
2018-03-18T05:19:24.122Z,58.20
2018-03-18T05:21:54.233Z,58.10
2018-03-18T05:24:25.998Z,59.00
2018-03-18T05:26:55.741Z,59.00
2018-03-18T05:29:26.494Z,59.00
2018-03-18T05:31:56.387Z,58.90
2018-03-18T05:34:26.929Z,59.20
2018-03-18T05:36:56.666Z,59.20
2018-03-18T05:39:27.034Z,59.40
2018-03-18T05:41:57.681Z,59.40
2018-03-18T05:44:28.114Z,58.50
2018-03-18T05:46:58.591Z,57.40
2018-03-18T05:49:28.341Z,57.40
2018-03-18T05:51:58.814Z,56.00
2018-03-18T05:54:28.607Z,56.00
2018-03-18T05:56:58.469Z,56.00
2018-03-18T05:59:28.261Z,54.60
2018-03-18T06:01:57.962Z,53.80
2018-03-18T06:04:28.002Z,53.00
2018-03-18T06:06:59.080Z,52.40
2018-03-18T06:09:29.567Z,52.90
2018-03-18T06:12:00.314Z,52.90
2018-03-18T06:14:30.074Z,53.40
2018-03-18T06:16:59.803Z,53.90
2018-03-18T06:19:29.545Z,54.20
2018-03-18T06:21:59.640Z,54.70
2018-03-18T06:24:30.626Z,55.20
2018-03-18T06:27:01.133Z,54.90
2018-03-18T06:29:30.827Z,54.90
2018-03-18T06:32:00.603Z,54.50
2018-03-18T06:34:31.466Z,53.80
2018-03-18T06:37:01.235Z,53.80
2018-03-18T06:39:31.106Z,53.50
2018-03-18T06:42:02.909Z,52.70
2018-03-18T06:44:32.672Z,52.70
2018-03-18T06:47:02.483Z,52.90
2018-03-18T06:49:32.284Z,53.20
2018-03-18T06:52:03.097Z,53.70
2018-03-18T06:54:32.837Z,53.70
2018-03-18T06:57:03.541Z,54.40
2018-03-18T06:59:33.237Z,54.40
2018-03-18T07:02:03.051Z,55.10
2018-03-18T07:04:33.341Z,55.90
2018-03-18T07:07:03.591Z,56.20
2018-03-18T07:09:33.776Z,56.70
2018-03-18T07:12:04.937Z,57.10
2018-03-18T07:14:35.486Z,57.40
2018-03-18T07:17:05.255Z,57.40
2018-03-18T07:19:34.997Z,57.00
2018-03-18T07:22:04.802Z,56.60
2018-03-18T07:24:35.660Z,55.50
2018-03-18T07:27:05.430Z,55.50
2018-03-18T07:29:36.160Z,54.30
2018-03-18T07:32:05.929Z,54.30
2018-03-18T07:34:35.766Z,53.90
2018-03-18T07:37:05.957Z,52.80
2018-03-18T07:39:36.106Z,52.60
2018-03-18T07:42:06.386Z,52.60
2018-03-18T07:44:36.570Z,53.50
2018-03-18T07:47:08.614Z,53.80
2018-03-18T07:49:38.358Z,54.30
2018-03-18T07:52:08.913Z,53.80
2018-03-18T07:54:38.675Z,53.80
2018-03-18T07:57:08.453Z,53.50
2018-03-18T07:59:38.495Z,53.10
2018-03-18T08:02:08.290Z,52.10
2018-03-18T08:04:39.026Z,52.90
2018-03-18T08:07:08.730Z,52.90
2018-03-18T08:09:38.641Z,52.70
2018-03-18T08:12:11.045Z,52.30
2018-03-18T08:14:40.754Z,52.30
2018-03-18T08:17:10.521Z,52.50
2018-03-18T08:19:40.469Z,52.60
2018-03-18T08:22:10.186Z,53.30
2018-03-18T08:24:40.043Z,52.50
2018-03-18T08:27:11.015Z,52.90
2018-03-18T08:29:40.812Z,52.90
2018-03-18T08:32:10.619Z,53.30
2018-03-18T08:34:40.391Z,53.50
2018-03-18T08:37:11.262Z,55.00
2018-03-18T08:39:41.289Z,55.40
2018-03-18T08:42:11.501Z,56.00
2018-03-18T08:44:41.775Z,55.70
2018-03-18T08:47:11.983Z,55.60
2018-03-18T08:49:42.908Z,54.20
2018-03-18T08:52:12.646Z,54.20
2018-03-18T08:54:42.586Z,54.10
2018-03-18T08:57:13.480Z,53.50
2018-03-18T08:59:43.408Z,53.40
2018-03-18T09:02:14.229Z,53.30
2018-03-18T09:04:43.930Z,52.70
2018-03-18T09:07:14.621Z,52.80
2018-03-18T09:09:45.130Z,53.00
2018-03-18T09:12:14.812Z,53.00
2018-03-18T09:14:45.339Z,53.40
2018-03-18T09:17:16.166Z,53.40
2018-03-18T09:19:45.919Z,53.00
2018-03-18T09:22:15.716Z,51.90
2018-03-18T09:24:46.403Z,52.20
2018-03-18T09:27:16.204Z,52.90
2018-03-18T09:29:46.676Z,51.90
2018-03-18T09:32:16.404Z,51.90
2018-03-18T09:34:47.881Z,51.80
2018-03-18T09:37:18.530Z,52.60
2018-03-18T09:39:48.246Z,52.60
2018-03-18T09:42:18.031Z,51.50
2018-03-18T09:44:48.508Z,51.70
2018-03-18T09:47:18.248Z,51.70
2018-03-18T09:49:47.958Z,51.80
2018-03-18T09:52:18.887Z,52.10
2018-03-18T09:54:48.605Z,52.40
2018-03-18T09:57:18.638Z,53.20
2018-03-18T09:59:48.364Z,53.60
2018-03-18T10:02:18.265Z,54.00
2018-03-18T10:04:49.262Z,54.40
2018-03-18T10:07:18.960Z,54.40
2018-03-18T10:09:48.966Z,54.60
2018-03-18T10:12:19.237Z,55.30
2018-03-18T10:14:50.525Z,56.40
2018-03-18T10:17:20.773Z,56.40
2018-03-18T10:19:50.554Z,57.60
2018-03-18T10:22:21.085Z,57.80
2018-03-18T10:24:51.797Z,57.90
2018-03-18T10:27:22.261Z,57.60
2018-03-18T10:29:52.021Z,57.60
2018-03-18T10:32:23.912Z,58.10
2018-03-18T10:34:54.540Z,58.40
2018-03-18T10:37:25.472Z,58.60
2018-03-18T10:39:56.546Z,58.90
2018-03-18T10:42:26.307Z,58.90
2018-03-18T10:44:56.041Z,59.20
2018-03-18T10:47:27.606Z,59.00
2018-03-18T10:49:57.300Z,59.00
2018-03-18T10:52:29.730Z,59.00
2018-03-18T10:54:59.431Z,58.90
2018-03-18T10:57:29.100Z,58.70
2018-03-18T10:59:58.831Z,58.70
2018-03-18T11:02:28.725Z,58.90
2018-03-18T11:04:59.383Z,59.50
2018-03-18T11:07:29.347Z,59.40
2018-03-18T11:10:00.080Z,59.90
2018-03-18T11:12:30.638Z,61.30
2018-03-18T11:15:01.151Z,61.40
2018-03-18T11:17:31.652Z,61.10
2018-03-18T11:20:01.402Z,61.10
2018-03-18T11:22:32.033Z,60.40
2018-03-18T11:25:02.512Z,61.20
2018-03-18T11:27:32.206Z,61.20
2018-03-18T11:30:02.173Z,61.60
2018-03-18T11:32:33.498Z,62.20
2018-03-18T11:35:03.346Z,62.20
2018-03-18T11:37:33.849Z,62.20
2018-03-18T11:40:03.584Z,62.20
2018-03-18T11:42:34.677Z,63.00
2018-03-18T11:45:04.429Z,63.00
2018-03-18T11:47:35.087Z,63.60
2018-03-18T11:50:04.845Z,63.50
2018-03-18T11:52:34.578Z,63.80
2018-03-18T11:55:05.159Z,63.60
2018-03-18T11:57:35.483Z,63.60
2018-03-18T12:00:05.617Z,63.40
2018-03-18T12:02:35.306Z,63.40
2018-03-18T12:05:05.149Z,63.60
2018-03-18T12:07:34.882Z,64.10
2018-03-18T12:10:05.466Z,64.80
2018-03-18T12:12:35.244Z,64.80
2018-03-18T12:15:05.029Z,65.10
2018-03-18T12:17:34.910Z,65.20
2018-03-18T12:20:04.726Z,65.30
2018-03-18T12:22:34.451Z,65.60
2018-03-18T12:25:04.130Z,66.00
2018-03-18T12:27:33.899Z,66.10
2018-03-18T12:30:03.600Z,66.30
2018-03-18T12:32:34.110Z,66.00
2018-03-18T12:35:04.619Z,66.00
2018-03-18T12:37:34.622Z,66.20
2018-03-18T12:40:15.421Z,66.30
2018-03-18T12:42:56.149Z,66.50
2018-03-18T12:45:25.934Z,66.70
2018-03-18T12:47:55.862Z,66.50
2018-03-18T12:50:25.639Z,66.30
2018-03-18T12:52:55.353Z,66.40
2018-03-18T12:55:26.091Z,66.60
2018-03-18T12:57:57.141Z,66.90
2018-03-18T13:00:26.878Z,66.90
2018-03-18T13:02:56.586Z,67.30
2018-03-18T13:05:26.333Z,67.60
2018-03-18T13:07:56.026Z,67.70
2018-03-18T13:10:25.874Z,67.30
2018-03-18T13:12:56.457Z,67.90
2018-03-18T13:15:26.157Z,67.80
2018-03-18T13:17:55.905Z,68.00
2018-03-18T13:20:25.597Z,68.20
2018-03-18T13:22:56.280Z,68.50
2018-03-18T13:25:26.789Z,68.40
2018-03-18T13:27:56.776Z,68.40
2018-03-18T13:30:26.613Z,68.60
2018-03-18T13:32:56.442Z,68.70
2018-03-18T13:35:26.509Z,69.00
2018-03-18T13:37:56.741Z,69.20
2018-03-18T13:40:26.869Z,69.50
2018-03-18T13:42:57.346Z,69.60
2018-03-18T13:45:28.127Z,69.80
2018-03-18T13:47:58.242Z,69.80
2018-03-18T13:50:28.061Z,69.60
2018-03-18T13:52:58.785Z,69.40
2018-03-18T13:55:29.485Z,69.40
2018-03-18T13:58:00.075Z,70.40
2018-03-18T14:00:29.806Z,70.30
2018-03-18T14:03:00.331Z,70.40
2018-03-18T14:05:30.737Z,70.40
2018-03-18T14:08:00.470Z,70.60
2018-03-18T14:10:31.202Z,70.60
2018-03-18T14:13:01.899Z,70.60
2018-03-18T14:15:31.781Z,70.50
2018-03-18T14:18:01.547Z,71.30
2018-03-18T14:20:31.304Z,70.50
2018-03-18T14:23:01.122Z,70.60
2018-03-18T14:25:32.064Z,70.60
2018-03-18T14:28:01.813Z,70.60
2018-03-18T14:30:31.622Z,70.60
2018-03-18T14:33:01.421Z,70.60
2018-03-18T14:35:32.103Z,70.70
2018-03-18T14:38:03.016Z,70.50
2018-03-18T14:40:32.797Z,70.40
2018-03-18T14:43:02.565Z,70.10
2018-03-18T14:45:32.325Z,69.90
2018-03-18T14:48:02.558Z,70.00
2018-03-18T14:50:32.477Z,70.50
2018-03-18T14:53:04.086Z,70.90
2018-03-18T14:55:33.838Z,70.90
2018-03-18T14:58:03.590Z,70.60
2018-03-18T15:00:33.301Z,68.00
2018-03-18T15:03:04.126Z,65.80
2018-03-18T15:05:34.736Z,66.40
2018-03-18T15:08:04.563Z,66.30
2018-03-18T15:10:35.473Z,68.10
2018-03-18T15:13:05.294Z,68.10
2018-03-18T15:15:35.121Z,68.90
2018-03-18T15:18:06.686Z,71.10
2018-03-18T15:20:36.669Z,71.10
2018-03-18T15:23:06.405Z,71.80
2018-03-18T15:25:37.341Z,72.30
2018-03-18T15:28:08.121Z,72.00
2018-03-18T15:30:37.873Z,71.90
2018-03-18T15:33:07.688Z,72.20
2018-03-18T15:35:37.503Z,72.40
2018-03-18T15:38:08.105Z,72.10
2018-03-18T15:40:37.853Z,72.00
2018-03-18T15:43:08.347Z,72.40
2018-03-18T15:45:38.126Z,72.40
2018-03-18T15:48:07.813Z,72.60
2018-03-18T15:50:38.630Z,73.90
2018-03-18T15:53:09.230Z,74.30
2018-03-18T15:55:39.136Z,74.30
2018-03-18T15:58:09.722Z,74.50
2018-03-18T16:00:40.225Z,74.30
2018-03-18T16:03:10.003Z,74.30
2018-03-18T16:05:39.756Z,74.00
2018-03-18T16:08:09.525Z,74.00
2018-03-18T16:10:39.207Z,73.50
2018-03-18T16:13:09.112Z,73.20
2018-03-18T16:15:39.338Z,72.80
2018-03-18T16:18:10.271Z,72.30
2018-03-18T16:20:40.761Z,71.90
2018-03-18T16:23:10.509Z,71.90
2018-03-18T16:25:40.986Z,71.40
2018-03-18T16:28:11.252Z,71.40
2018-03-18T16:30:52.921Z,71.40
2018-03-18T16:33:22.653Z,71.30
2018-03-18T16:35:53.437Z,71.30
2018-03-18T16:38:23.138Z,71.10
2018-03-18T16:40:52.852Z,71.30
2018-03-18T16:43:22.578Z,71.50
2018-03-18T16:45:52.475Z,71.60
2018-03-18T16:48:22.179Z,71.60
2018-03-18T16:50:52.022Z,71.70
2018-03-18T16:53:22.295Z,71.90
2018-03-18T16:55:52.529Z,72.20
2018-03-18T16:58:22.882Z,72.20
2018-03-18T17:00:52.800Z,72.20
2018-03-18T17:03:23.989Z,72.80
2018-03-18T17:05:54.457Z,73.00
2018-03-18T17:08:24.247Z,73.00
2018-03-18T17:10:54.024Z,73.10
2018-03-18T17:13:24.591Z,73.10
2018-03-18T17:15:55.711Z,73.10
2018-03-18T17:18:25.508Z,73.10
2018-03-18T17:20:56.066Z,72.80
2018-03-18T17:23:25.825Z,72.70
2018-03-18T17:25:55.592Z,72.60
2018-03-18T17:28:25.269Z,72.50
2018-03-18T17:30:56.090Z,73.60
2018-03-18T17:33:26.588Z,73.50
2018-03-18T17:35:56.262Z,73.80
2018-03-18T17:38:25.951Z,74.00
2018-03-18T17:40:56.761Z,74.30
2018-03-18T17:43:26.457Z,74.40
2018-03-18T17:46:07.658Z,74.30
2018-03-18T17:48:48.410Z,74.20
2018-03-18T17:51:29.232Z,74.10
2018-03-18T17:54:10.674Z,74.00
2018-03-18T17:56:40.539Z,73.90
2018-03-18T17:59:10.722Z,73.80
2018-03-18T18:01:40.451Z,73.50
2018-03-18T18:04:10.947Z,73.30
2018-03-18T18:06:40.712Z,73.20
2018-03-18T18:09:10.375Z,73.00
2018-03-18T18:11:40.172Z,73.00
2018-03-18T18:14:09.910Z,73.40
2018-03-18T18:16:40.893Z,73.80
2018-03-18T18:19:10.617Z,73.70
2018-03-18T18:21:40.285Z,74.10
2018-03-18T18:24:10.787Z,74.90
2018-03-18T18:26:40.561Z,74.80
2018-03-18T18:29:10.292Z,73.80
2018-03-18T18:31:40.349Z,74.90
2018-03-18T18:34:10.593Z,74.80
2018-03-18T18:36:41.571Z,74.10
2018-03-18T18:39:11.410Z,74.10
2018-03-18T18:41:42.730Z,73.90
2018-03-18T18:44:12.490Z,74.60
2018-03-18T18:46:42.346Z,73.90
2018-03-18T18:49:12.062Z,73.80
2018-03-18T18:51:42.924Z,74.00
2018-03-18T18:54:12.824Z,73.90
2018-03-18T18:56:43.434Z,74.30
2018-03-18T18:59:13.198Z,75.00
2018-03-18T19:01:43.919Z,74.70
2018-03-18T19:04:14.446Z,74.90
2018-03-18T19:06:44.135Z,74.80
2018-03-18T19:09:13.789Z,74.90
2018-03-18T19:11:43.869Z,74.70
2018-03-18T19:14:14.896Z,74.80
2018-03-18T19:16:45.006Z,74.80
2018-03-18T19:19:14.793Z,74.90
2018-03-18T19:21:45.487Z,74.90
2018-03-18T19:24:15.970Z,74.80
2018-03-18T19:26:45.685Z,74.80
2018-03-18T19:29:15.484Z,74.60
2018-03-18T19:31:46.204Z,74.50
2018-03-18T19:34:15.882Z,74.50
2018-03-18T19:36:46.731Z,74.90
2018-03-18T19:39:16.572Z,74.90
2018-03-18T19:41:47.161Z,74.90
2018-03-18T19:44:17.663Z,74.80
2018-03-18T19:46:47.401Z,74.70
2018-03-18T19:49:17.841Z,74.80
2018-03-18T19:51:48.310Z,74.80
2018-03-18T19:54:17.953Z,74.80
2018-03-18T19:56:47.727Z,74.80
2018-03-18T19:59:18.985Z,74.60
2018-03-18T20:01:48.709Z,74.60
2018-03-18T20:04:18.451Z,74.70
2018-03-18T20:06:48.585Z,74.70
2018-03-18T20:09:19.457Z,74.90
2018-03-18T20:11:49.226Z,74.90
2018-03-18T20:14:19.203Z,74.90
2018-03-18T20:16:49.440Z,74.90
2018-03-18T20:19:19.667Z,75.00
2018-03-18T20:21:50.629Z,75.00
2018-03-18T20:24:20.412Z,75.10
2018-03-18T20:26:50.163Z,75.20
2018-03-18T20:29:21.269Z,75.70
2018-03-18T20:31:51.770Z,75.60
2018-03-18T20:34:21.484Z,75.60
2018-03-18T20:36:51.169Z,75.60
2018-03-18T20:39:21.262Z,75.80
2018-03-18T20:41:52.370Z,76.00
2018-03-18T20:44:22.905Z,75.90
2018-03-18T20:46:53.426Z,76.00
2018-03-18T20:49:23.872Z,76.20
2018-03-18T20:51:54.403Z,76.40
2018-03-18T20:54:24.262Z,76.40
2018-03-18T20:56:53.984Z,76.50
2018-03-18T20:59:23.724Z,76.50
2018-03-18T21:01:54.302Z,76.20
2018-03-18T21:04:25.241Z,76.20
2018-03-18T21:06:54.982Z,76.40
2018-03-18T21:09:24.672Z,76.50
2018-03-18T21:11:54.388Z,76.50
2018-03-18T21:14:24.221Z,76.60
2018-03-18T21:16:54.489Z,76.60
2018-03-18T21:19:25.368Z,76.50
2018-03-18T21:21:55.104Z,76.50
2018-03-18T21:24:25.839Z,76.40
2018-03-18T21:26:56.310Z,76.30
2018-03-18T21:29:26.017Z,76.30
2018-03-18T21:31:55.740Z,76.30
2018-03-18T21:34:36.854Z,76.50
2018-03-18T21:37:06.773Z,76.60
2018-03-18T21:39:37.238Z,76.60
2018-03-18T21:42:06.928Z,76.50
2018-03-18T21:44:36.778Z,76.60
2018-03-18T21:47:06.881Z,76.60
2018-03-18T21:49:37.062Z,76.50
2018-03-18T21:52:08.346Z,76.00
2018-03-18T21:54:38.006Z,75.80
2018-03-18T21:57:08.665Z,76.20
2018-03-18T21:59:39.678Z,76.20
2018-03-18T22:02:09.424Z,76.70
2018-03-18T22:04:39.212Z,77.00
2018-03-18T22:07:09.758Z,77.10
2018-03-18T22:09:39.529Z,77.00
2018-03-18T22:12:09.975Z,77.10
2018-03-18T22:14:39.931Z,77.10
2018-03-18T22:17:09.642Z,77.10
2018-03-18T22:19:40.565Z,77.10
2018-03-18T22:22:11.070Z,77.20
2018-03-18T22:24:41.521Z,77.30
2018-03-18T22:27:11.311Z,77.30
2018-03-18T22:29:41.812Z,77.10
2018-03-18T22:32:11.553Z,77.10
2018-03-18T22:34:42.058Z,76.90
2018-03-18T22:37:11.773Z,76.90
2018-03-18T22:39:41.502Z,76.60
2018-03-18T22:42:11.598Z,76.30
2018-03-18T22:44:42.537Z,76.60
2018-03-18T22:47:12.228Z,76.60
2018-03-18T22:49:43.078Z,76.80
2018-03-18T22:52:14.514Z,76.70
2018-03-18T22:54:44.226Z,76.70
2018-03-18T22:57:13.981Z,76.60
2018-03-18T22:59:44.041Z,76.50
2018-03-18T23:02:13.722Z,76.40
2018-03-18T23:04:43.721Z,76.20
2018-03-18T23:07:13.806Z,76.10
2018-03-18T23:09:43.958Z,75.90
2018-03-18T23:12:15.160Z,76.00
2018-03-18T23:14:44.871Z,76.00
2018-03-18T23:17:15.370Z,76.40
2018-03-18T23:19:45.084Z,76.40
2018-03-18T23:22:15.001Z,76.60
2018-03-18T23:24:45.269Z,76.70
2018-03-18T23:27:16.528Z,76.60
2018-03-18T23:29:47.053Z,76.80
2018-03-18T23:32:17.541Z,77.00
2018-03-18T23:34:47.295Z,76.90
2018-03-18T23:37:17.838Z,77.40
2018-03-18T23:39:47.556Z,77.40
2018-03-18T23:42:17.278Z,77.40
2018-03-18T23:44:47.057Z,77.50
2018-03-18T23:47:18.018Z,77.70
2018-03-18T23:49:47.733Z,77.60
2018-03-18T23:52:17.696Z,77.70
2018-03-18T23:54:47.897Z,77.60
2018-03-18T23:57:18.079Z,77.50
2018-03-18T23:59:49.146Z,77.50
